createdAt,value
2019-03-04T00:02:33.334Z,8.46
2019-03-04T00:05:09.446Z,8.01
2019-03-04T00:07:46.905Z,7.95
2019-03-04T00:10:24.950Z,7.95
2019-03-04T00:12:59.811Z,7.87
2019-03-04T00:15:34.473Z,8.10
2019-03-04T00:18:11.114Z,8.41
2019-03-04T00:20:45.699Z,8.41
2019-03-04T00:23:20.530Z,8.36
2019-03-04T00:25:55.046Z,8.95
2019-03-04T00:28:29.842Z,8.95
2019-03-04T00:31:09.143Z,8.99
2019-03-04T00:33:44.316Z,8.99
2019-03-04T00:36:19.145Z,8.96
2019-03-04T00:38:55.013Z,9.08
2019-03-04T00:41:29.787Z,9.11
2019-03-04T00:44:04.623Z,8.96
2019-03-04T00:46:38.472Z,9.21
2019-03-04T00:49:13.304Z,9.31
2019-03-04T00:51:48.016Z,9.31
2019-03-04T00:54:23.660Z,9.65
2019-03-04T00:56:58.487Z,9.90
2019-03-04T00:59:33.167Z,9.95
2019-03-04T01:02:08.607Z,9.95
2019-03-04T01:04:43.082Z,10.31
2019-03-04T01:07:17.656Z,10.31
2019-03-04T01:09:51.406Z,10.19
2019-03-04T01:12:26.381Z,10.28
2019-03-04T01:15:01.051Z,10.07
2019-03-04T01:17:36.279Z,9.95
2019-03-04T01:20:14.625Z,9.95
2019-03-04T01:22:49.146Z,10.02
2019-03-04T01:25:23.608Z,10.02
2019-03-04T01:27:57.288Z,9.79
2019-03-04T01:30:32.785Z,9.79
2019-03-04T01:33:07.328Z,9.69
2019-03-04T01:35:42.009Z,9.55
2019-03-04T01:38:16.552Z,9.40
2019-03-04T01:40:51.114Z,9.42
2019-03-04T01:43:25.670Z,9.42
2019-03-04T01:46:00.031Z,9.49
2019-03-04T01:48:34.586Z,9.49
2019-03-04T01:51:08.523Z,9.17
2019-03-04T01:53:43.040Z,9.20
2019-03-04T01:56:17.667Z,9.20
2019-03-04T01:58:51.578Z,9.12
2019-03-04T02:01:25.477Z,9.12
2019-03-04T02:04:00.235Z,9.08
2019-03-04T02:06:35.072Z,9.20
2019-03-04T02:09:10.080Z,9.08
2019-03-04T02:11:46.001Z,8.75
2019-03-04T02:14:20.603Z,8.75
2019-03-04T02:16:55.098Z,8.94
2019-03-04T02:19:29.694Z,8.73
2019-03-04T02:22:04.128Z,8.87
2019-03-04T02:24:39.438Z,8.98
2019-03-04T02:27:14.304Z,8.57
2019-03-04T02:29:48.843Z,8.57
2019-03-04T02:32:23.523Z,8.55
2019-03-04T02:34:57.849Z,8.75
2019-03-04T02:37:32.427Z,9.13
2019-03-04T02:40:08.072Z,9.30
2019-03-04T02:42:42.666Z,9.62
2019-03-04T02:45:17.725Z,9.75
2019-03-04T02:47:52.167Z,9.85
2019-03-04T02:50:27.049Z,9.57
2019-03-04T02:53:01.655Z,9.34
2019-03-04T02:55:35.371Z,9.66
2019-03-04T02:58:09.985Z,9.31
2019-03-04T03:00:45.115Z,9.08
2019-03-04T03:03:22.021Z,9.00
2019-03-04T03:05:56.702Z,9.10
2019-03-04T03:08:31.319Z,9.11
2019-03-04T03:11:06.026Z,8.84
2019-03-04T03:13:40.426Z,8.56
2019-03-04T03:16:15.459Z,8.90
2019-03-04T03:18:49.420Z,8.73
2019-03-04T03:21:24.134Z,8.66
2019-03-04T03:23:59.451Z,8.79
2019-03-04T03:26:33.528Z,8.59
2019-03-04T03:29:08.288Z,8.69
2019-03-04T03:31:43.018Z,8.69
2019-03-04T03:34:17.587Z,8.56
2019-03-04T03:36:51.491Z,8.66
2019-03-04T03:39:26.817Z,8.54
2019-03-04T03:42:01.880Z,8.54
2019-03-04T03:44:36.441Z,8.21
2019-03-04T03:47:11.058Z,8.08
2019-03-04T03:49:45.643Z,7.81
2019-03-04T03:52:20.046Z,7.91
2019-03-04T03:54:54.684Z,7.91
2019-03-04T03:57:28.454Z,7.97
2019-03-04T04:00:04.332Z,7.79
2019-03-04T04:02:39.453Z,8.10
2019-03-04T04:05:13.813Z,7.75
2019-03-04T04:07:51.539Z,7.59
2019-03-04T04:10:26.145Z,7.78
2019-03-04T04:13:01.651Z,8.06
2019-03-04T04:15:35.542Z,7.93
2019-03-04T04:18:09.781Z,7.62
2019-03-04T04:20:44.619Z,7.53
2019-03-04T04:23:19.623Z,7.81
2019-03-04T04:25:55.322Z,7.41
2019-03-04T04:28:31.643Z,7.44
2019-03-04T04:31:05.812Z,7.58
2019-03-04T04:33:40.185Z,7.47
2019-03-04T04:36:14.653Z,7.55
2019-03-04T04:38:49.352Z,7.76
2019-03-04T04:41:23.834Z,7.87
2019-03-04T04:43:58.879Z,7.78
2019-03-04T04:46:55.664Z,8.04
2019-03-04T04:49:33.073Z,7.41
2019-03-04T04:52:07.819Z,7.41
2019-03-04T04:54:42.487Z,7.22
2019-03-04T04:57:17.045Z,7.58
2019-03-04T04:59:51.671Z,7.58
2019-03-04T05:02:25.509Z,7.28
2019-03-04T05:05:00.123Z,7.23
2019-03-04T05:07:34.647Z,7.16
2019-03-04T05:10:12.658Z,7.43
2019-03-04T05:12:47.246Z,7.54
2019-03-04T05:15:22.156Z,7.56
2019-03-04T05:17:58.525Z,7.39
2019-03-04T05:20:33.140Z,7.44
2019-03-04T05:23:08.970Z,7.38
2019-03-04T05:25:43.706Z,7.20
2019-03-04T05:28:18.545Z,7.10
2019-03-04T05:30:53.565Z,6.82
2019-03-04T05:33:27.871Z,6.66
2019-03-04T05:36:02.591Z,6.66
2019-03-04T05:38:36.974Z,6.73
2019-03-04T05:41:11.875Z,6.92
2019-03-04T05:43:46.530Z,7.39
2019-03-04T05:46:21.612Z,7.32
2019-03-04T05:48:55.701Z,6.90
2019-03-04T05:51:31.908Z,6.63
2019-03-04T05:54:06.612Z,6.52
2019-03-04T05:56:40.710Z,6.44
2019-03-04T05:59:19.794Z,6.44
2019-03-04T06:02:12.309Z,6.58
2019-03-04T06:04:47.820Z,6.58
2019-03-04T06:07:42.414Z,6.68
2019-03-04T06:10:16.981Z,6.88
2019-03-04T06:12:52.261Z,7.42
2019-03-04T06:15:30.118Z,7.49
2019-03-04T06:18:05.562Z,7.79
2019-03-04T06:20:39.733Z,7.36
2019-03-04T06:23:15.419Z,7.36
2019-03-04T06:25:50.328Z,7.36
2019-03-04T06:28:25.083Z,7.40
2019-03-04T06:31:00.354Z,7.43
2019-03-04T06:33:35.672Z,7.81
2019-03-04T06:36:10.058Z,7.83
2019-03-04T06:38:45.182Z,7.87
2019-03-04T06:41:19.978Z,7.56
2019-03-04T06:43:54.651Z,7.45
2019-03-04T06:46:29.080Z,7.92
2019-03-04T06:49:04.147Z,8.33
2019-03-04T06:51:45.769Z,8.33
2019-03-04T06:55:30.739Z,8.61
2019-03-04T06:58:05.313Z,9.14
2019-03-04T07:01:08.150Z,9.07
2019-03-04T07:04:27.908Z,9.25
2019-03-04T07:07:02.668Z,9.54
2019-03-04T07:09:36.423Z,9.20
2019-03-04T07:12:10.814Z,9.20
2019-03-04T07:14:45.525Z,9.40
2019-03-04T07:17:20.147Z,10.29
2019-03-04T07:20:10.115Z,10.29
2019-03-04T07:22:44.991Z,10.46
2019-03-04T07:25:19.693Z,10.34
2019-03-04T07:27:53.545Z,10.48
2019-03-04T07:30:28.418Z,10.37
2019-03-04T07:33:02.477Z,10.40
2019-03-04T07:35:39.123Z,10.11
2019-03-04T07:38:47.746Z,10.15
2019-03-04T07:41:22.122Z,9.91
2019-03-04T07:43:56.722Z,10.65
2019-03-04T07:46:31.274Z,10.72
2019-03-04T07:49:06.310Z,10.88
2019-03-04T07:51:40.811Z,10.90
2019-03-04T07:54:15.512Z,11.09
2019-03-04T07:56:50.021Z,11.34
2019-03-04T07:59:25.560Z,11.53
2019-03-04T08:02:00.575Z,11.52
2019-03-04T08:04:34.272Z,11.05
2019-03-04T08:07:49.517Z,11.64
2019-03-04T08:11:09.488Z,12.73
2019-03-04T08:13:52.955Z,13.10
2019-03-04T08:16:27.585Z,13.10
2019-03-04T08:19:01.269Z,13.51
2019-03-04T08:21:35.805Z,13.72
2019-03-04T08:24:10.554Z,13.78
2019-03-04T08:26:44.481Z,13.79
2019-03-04T08:29:19.104Z,13.79
2019-03-04T08:31:53.690Z,14.10
2019-03-04T08:34:31.296Z,13.57
2019-03-04T08:37:06.361Z,13.64
2019-03-04T08:39:41.059Z,13.88
2019-03-04T08:42:15.868Z,13.65
2019-03-04T08:44:53.529Z,13.32
2019-03-04T08:47:27.647Z,12.62
2019-03-04T08:50:01.482Z,12.62
2019-03-04T08:52:36.525Z,12.66
2019-03-04T08:55:13.673Z,12.66
2019-03-04T08:57:48.136Z,12.41
2019-03-04T09:00:27.066Z,11.98
2019-03-04T09:03:02.580Z,12.12
2019-03-04T09:05:37.078Z,11.70
2019-03-04T09:08:11.628Z,11.70
2019-03-04T09:10:45.708Z,11.43
2019-03-04T09:13:20.612Z,11.52
2019-03-04T09:15:55.678Z,11.59
2019-03-04T09:18:32.058Z,12.02
2019-03-04T09:21:07.344Z,12.25
2019-03-04T09:23:42.317Z,12.35
2019-03-04T09:26:17.125Z,12.34
2019-03-04T09:28:52.384Z,12.18
2019-03-04T09:31:27.395Z,12.20
2019-03-04T09:34:02.303Z,12.28
2019-03-04T09:36:37.011Z,12.21
2019-03-04T09:39:16.522Z,12.40
2019-03-04T09:41:52.977Z,13.20
2019-03-04T09:44:27.948Z,13.20
2019-03-04T09:47:02.645Z,13.36
2019-03-04T09:49:37.325Z,13.51
2019-03-04T09:52:11.762Z,13.45
2019-03-04T09:54:46.677Z,13.59
2019-03-04T09:57:21.310Z,14.32
2019-03-04T09:59:56.065Z,14.65
2019-03-04T10:02:43.666Z,15.03
2019-03-04T10:06:13.302Z,14.64
2019-03-04T10:09:30.603Z,15.15
2019-03-04T10:12:26.886Z,15.30
2019-03-04T10:16:05.157Z,15.08
2019-03-04T10:19:59.320Z,15.32
2019-03-04T10:23:48.735Z,15.57
2019-03-04T10:28:08.095Z,15.17
2019-03-04T10:32:27.523Z,14.07
2019-03-04T10:35:44.040Z,14.14
2019-03-04T10:39:17.752Z,14.14
2019-03-04T10:43:16.331Z,13.60
2019-03-04T10:46:55.875Z,13.79
2019-03-04T10:49:33.839Z,13.38
2019-03-04T10:52:08.581Z,13.37
2019-03-04T10:54:42.460Z,13.56
2019-03-04T10:57:18.435Z,13.08
2019-03-04T10:59:53.180Z,13.30
2019-03-04T11:02:28.306Z,13.30
2019-03-04T11:05:03.137Z,12.95
2019-03-04T11:07:38.517Z,12.98
2019-03-04T11:10:57.827Z,12.96
2019-03-04T11:13:32.317Z,12.75
2019-03-04T11:16:07.977Z,12.58
2019-03-04T11:18:42.657Z,12.90
2019-03-04T11:21:17.675Z,13.14
2019-03-04T11:23:52.731Z,13.09
2019-03-04T11:26:27.603Z,12.97
2019-03-04T11:29:01.663Z,12.48
2019-03-04T11:31:36.272Z,12.79
2019-03-04T11:34:12.465Z,12.70
2019-03-04T11:36:47.547Z,12.86
2019-03-04T11:40:02.607Z,12.56
2019-03-04T11:42:38.161Z,12.56
2019-03-04T11:45:16.092Z,12.71
2019-03-04T11:47:50.979Z,12.56
2019-03-04T11:50:25.692Z,12.74
2019-03-04T11:53:00.875Z,12.62
2019-03-04T11:55:35.621Z,12.34
2019-03-04T11:58:10.521Z,12.79
2019-03-04T12:00:49.551Z,12.48
2019-03-04T12:03:24.326Z,13.14
2019-03-04T12:05:58.897Z,13.14
2019-03-04T12:08:33.804Z,13.11
2019-03-04T12:11:08.522Z,13.19
2019-03-04T12:13:43.838Z,13.23
2019-03-04T12:16:18.831Z,13.32
2019-03-04T12:18:53.592Z,12.91
2019-03-04T12:21:27.701Z,12.43
2019-03-04T12:24:03.066Z,12.55
2019-03-04T12:26:38.540Z,12.89
2019-03-04T12:29:12.740Z,12.83
2019-03-04T12:32:02.672Z,12.83
2019-03-04T12:34:37.319Z,12.76
2019-03-04T12:37:12.072Z,12.80
2019-03-04T12:39:47.069Z,12.84
2019-03-04T12:42:22.054Z,12.94
2019-03-04T12:44:58.050Z,13.09
2019-03-04T12:47:32.802Z,13.02
2019-03-04T12:50:18.931Z,12.93
2019-03-04T12:52:55.557Z,12.59
2019-03-04T12:55:44.218Z,12.66
2019-03-04T12:58:47.197Z,12.81
2019-03-04T13:01:41.571Z,12.96
2019-03-04T13:04:24.288Z,13.44
2019-03-04T13:07:05.185Z,13.68
2019-03-04T13:09:50.549Z,13.35
2019-03-04T13:12:37.064Z,13.61
2019-03-04T13:15:27.447Z,14.19
2019-03-04T13:18:09.556Z,13.69
2019-03-04T13:21:04.605Z,13.92
2019-03-04T13:23:47.407Z,13.83
2019-03-04T13:26:32.155Z,14.36
2019-03-04T13:29:17.323Z,14.65
2019-03-04T13:32:08.161Z,15.73
2019-03-04T13:34:50.067Z,15.94
2019-03-04T13:37:43.335Z,15.94
2019-03-04T13:40:38.250Z,15.41
2019-03-04T13:46:30.411Z,15.57
2019-03-04T13:49:33.679Z,15.43
2019-03-04T13:52:21.336Z,15.55
2019-03-04T13:55:25.076Z,15.50
2019-03-04T13:58:17.671Z,15.50
2019-03-04T14:01:06.951Z,15.34
2019-03-04T14:04:00.615Z,15.10
2019-03-04T14:06:45.012Z,15.26
2019-03-04T14:09:27.950Z,15.42
2019-03-04T14:12:11.052Z,14.60
2019-03-04T14:15:00.143Z,14.60
2019-03-04T14:17:52.991Z,14.85
2019-03-04T14:20:42.487Z,14.68
2019-03-04T14:23:28.481Z,14.69
2019-03-04T14:26:17.966Z,14.52
2019-03-04T14:29:25.047Z,14.93
2019-03-04T14:32:10.936Z,15.03
2019-03-04T14:34:58.664Z,15.03
2019-03-04T14:37:49.381Z,15.06
2019-03-04T14:40:38.993Z,14.77
2019-03-04T14:43:29.183Z,14.86
2019-03-04T14:46:29.351Z,14.77
2019-03-04T14:49:20.065Z,14.95
2019-03-04T14:52:09.323Z,15.04
2019-03-04T14:54:56.661Z,15.29
2019-03-04T14:57:40.930Z,15.13
2019-03-04T15:00:35.345Z,15.08
2019-03-04T15:03:23.991Z,14.79
2019-03-04T15:06:07.152Z,14.44
2019-03-04T15:08:59.072Z,13.97
2019-03-04T15:11:42.365Z,13.97
2019-03-04T15:14:31.361Z,13.91
2019-03-04T15:17:21.237Z,14.07
2019-03-04T15:20:18.340Z,13.82
2019-03-04T15:22:55.070Z,13.82
2019-03-04T15:25:31.247Z,14.03
2019-03-04T15:28:15.892Z,13.70
2019-03-04T15:30:55.318Z,13.66
2019-03-04T15:33:30.496Z,13.57
2019-03-04T15:36:11.302Z,13.73
2019-03-04T15:38:45.975Z,13.73
2019-03-04T15:41:25.534Z,13.44
2019-03-04T15:44:10.629Z,13.36
2019-03-04T15:46:52.226Z,13.34
2019-03-04T15:49:44.361Z,13.07
2019-03-04T17:19:26.537Z,7.64
2019-03-04T17:22:01.456Z,7.74
2019-03-04T17:24:36.645Z,7.75
2019-03-04T17:27:10.832Z,7.95
2019-03-04T17:29:46.095Z,8.12
2019-03-04T17:32:23.024Z,8.02
2019-03-04T17:34:58.026Z,8.09
2019-03-04T17:37:34.442Z,8.20
2019-03-04T17:40:11.838Z,8.06
2019-03-04T17:42:46.858Z,8.06
2019-03-04T17:45:24.281Z,7.89
2019-03-04T17:47:59.468Z,8.02
2019-03-04T17:50:35.946Z,7.63
2019-03-04T17:53:10.671Z,7.63
2019-03-04T17:55:45.505Z,7.70
2019-03-04T17:58:20.326Z,7.68
2019-03-04T18:00:55.421Z,7.68
2019-03-04T18:03:30.304Z,7.89
2019-03-04T18:06:05.070Z,7.64
2019-03-04T18:08:40.100Z,7.56
2019-03-04T18:11:15.048Z,7.60
2019-03-04T18:13:50.105Z,7.46
2019-03-04T18:16:25.092Z,7.39
2019-03-04T18:18:59.644Z,7.47
2019-03-04T18:21:35.499Z,7.22
2019-03-04T18:24:10.171Z,7.40
2019-03-04T18:27:11.542Z,7.40
2019-03-04T18:33:45.674Z,7.11
2019-03-04T18:37:20.301Z,6.82
2019-03-04T18:41:20.596Z,6.92
2019-03-04T18:44:39.307Z,7.17
2019-03-04T18:48:10.321Z,7.15
2019-03-04T18:50:45.519Z,7.13
2019-03-04T18:53:20.651Z,7.20
2019-03-04T18:55:55.315Z,7.20
2019-03-04T18:58:29.803Z,7.50
2019-03-04T19:01:06.150Z,7.46
2019-03-04T19:03:41.501Z,7.59
2019-03-04T19:06:16.437Z,7.40
2019-03-04T19:08:51.442Z,7.44
2019-03-04T19:11:26.201Z,7.29
2019-03-04T19:14:00.812Z,7.29
2019-03-04T19:16:36.324Z,7.33
2019-03-04T19:19:11.141Z,7.31
2019-03-04T19:21:46.314Z,7.35
2019-03-04T19:24:21.153Z,7.41
2019-03-04T19:26:56.122Z,7.74
2019-03-04T19:29:32.126Z,7.74
2019-03-04T19:32:07.040Z,7.80
2019-03-04T19:34:42.220Z,7.54
2019-03-04T19:37:17.051Z,7.83
2019-03-04T19:39:52.606Z,7.99
2019-03-04T19:42:26.697Z,7.92
2019-03-04T19:45:01.322Z,8.19
2019-03-04T19:47:40.387Z,8.05
2019-03-04T19:50:17.121Z,7.89
2019-03-04T19:52:52.049Z,7.57
2019-03-04T19:55:27.145Z,7.35
2019-03-04T19:58:02.553Z,7.89
2019-03-04T20:00:37.963Z,7.33
2019-03-04T20:03:13.033Z,7.42
2019-03-04T20:05:48.165Z,7.05
2019-03-04T20:08:23.516Z,6.87
2019-03-04T20:10:58.330Z,6.66
2019-03-04T20:13:33.304Z,6.66
2019-03-04T20:16:09.674Z,6.41
2019-03-04T20:18:44.603Z,6.55
2019-03-04T20:21:18.505Z,6.24
2019-03-04T20:23:53.639Z,6.41
2019-03-04T20:26:27.293Z,6.41
2019-03-04T20:29:02.592Z,6.32
2019-03-04T20:31:36.514Z,6.32
2019-03-04T20:34:10.680Z,5.87
2019-03-04T20:36:46.860Z,6.07
2019-03-04T20:39:22.830Z,6.30
2019-03-04T20:41:57.583Z,6.24
2019-03-04T20:44:31.477Z,6.00
2019-03-04T20:47:06.536Z,5.94
2019-03-04T20:49:41.938Z,6.00
2019-03-04T20:52:17.169Z,6.00
2019-03-04T20:54:52.217Z,6.31
2019-03-04T20:57:27.319Z,6.15
2019-03-04T21:00:02.083Z,6.33
2019-03-04T21:02:38.756Z,6.30
2019-03-04T21:05:17.236Z,6.14
2019-03-04T21:07:52.781Z,6.50
2019-03-04T21:10:28.568Z,6.63
2019-03-04T21:13:13.303Z,6.75
2019-03-04T21:15:48.745Z,6.69
2019-03-04T21:18:24.321Z,6.94
2019-03-04T21:20:59.724Z,6.59
2019-03-04T21:23:34.587Z,6.41
2019-03-04T21:26:24.317Z,6.74
2019-03-04T21:30:00.065Z,6.99
2019-03-04T21:33:34.703Z,6.73
2019-03-04T21:36:50.506Z,6.75
2019-03-04T21:39:32.741Z,6.67
2019-03-04T21:43:03.824Z,6.67
2019-03-04T21:47:10.107Z,7.00
2019-03-04T21:49:54.057Z,7.09
2019-03-04T21:53:12.457Z,6.57
2019-03-04T21:56:36.245Z,6.62
2019-03-04T21:59:12.126Z,6.72
2019-03-04T22:02:16.438Z,6.84
2019-03-04T22:04:51.563Z,6.95
2019-03-04T22:07:26.459Z,7.11
2019-03-04T22:10:01.681Z,7.11
2019-03-04T22:12:37.873Z,6.98
2019-03-04T22:15:13.341Z,6.99
2019-03-04T22:17:48.333Z,7.14
2019-03-04T22:20:23.179Z,7.14
2019-03-04T22:22:58.393Z,7.22
2019-03-04T22:25:32.836Z,7.52
2019-03-04T22:28:07.470Z,7.28
2019-03-04T22:30:42.773Z,7.33
2019-03-04T22:33:17.715Z,7.25
2019-03-04T22:35:52.674Z,7.12
2019-03-04T22:38:26.805Z,7.03
2019-03-04T22:41:01.741Z,6.97
2019-03-04T22:43:36.649Z,6.62
2019-03-04T22:46:10.482Z,6.75
2019-03-04T22:48:45.532Z,6.81
2019-03-04T22:51:20.502Z,6.91
2019-03-04T22:53:55.662Z,6.75
2019-03-04T22:56:29.864Z,6.75
2019-03-04T22:59:04.898Z,6.65
2019-03-04T23:01:54.262Z,6.61
2019-03-04T23:05:01.489Z,6.17
2019-03-04T23:07:49.170Z,6.29
2019-03-04T23:10:45.842Z,6.43
2019-03-04T23:14:00.651Z,6.32
2019-03-04T23:16:34.281Z,6.36
2019-03-04T23:19:09.057Z,6.31
2019-03-04T23:21:43.789Z,6.27
2019-03-04T23:24:18.558Z,5.92
2019-03-04T23:26:52.730Z,6.05
2019-03-04T23:29:26.669Z,6.05
2019-03-04T23:32:01.361Z,6.11
2019-03-04T23:34:37.524Z,5.76
2019-03-04T23:37:12.335Z,5.58
2019-03-04T23:39:47.024Z,5.58
2019-03-04T23:42:21.772Z,5.67
2019-03-04T23:44:56.792Z,5.87
2019-03-04T23:47:32.820Z,5.78
2019-03-04T23:50:18.540Z,5.82
2019-03-04T23:52:53.155Z,5.79
2019-03-04T23:55:28.209Z,5.79
2019-03-04T23:58:03.599Z,5.75
